sensor_id;sensor_type;location;lat;lon;timestamp;P1;durP1;ratioP1;P2;durP2;ratioP2
75603;SDS011;64187;51.010;13.792;2022-11-11T00:02:54;7.65;;;5.28;;
75603;SDS011;64187;51.010;13.792;2022-11-11T00:08:13;11.55;;;5.45;;
75603;SDS011;64187;51.010;13.792;2022-11-11T00:13:31;8.15;;;4.57;;
75603;SDS011;64187;51.010;13.792;2022-11-11T00:18:50;6.63;;;3.70;;
75603;SDS011;64187;51.010;13.792;2022-11-11T00:24:27;9.70;;;5.05;;
75603;SDS011;64187;51.010;13.792;2022-11-11T00:30:04;7.57;;;4.15;;
75603;SDS011;64187;51.010;13.792;2022-11-11T00:35:22;6.88;;;4.47;;
75603;SDS011;64187;51.010;13.792;2022-11-11T00:40:58;8.00;;;4.75;;
75603;SDS011;64187;51.010;13.792;2022-11-11T00:46:17;6.40;;;4.25;;
75603;SDS011;64187;51.010;13.792;2022-11-11T00:51:53;9.73;;;4.47;;
75603;SDS011;64187;51.010;13.792;2022-11-11T00:57:10;10.60;;;4.65;;
75603;SDS011;64187;51.010;13.792;2022-11-11T01:02:27;6.90;;;4.60;;
75603;SDS011;64187;51.010;13.792;2022-11-11T01:07:47;6.55;;;4.28;;
75603;SDS011;64187;51.010;13.792;2022-11-11T01:13:13;7.65;;;4.45;;
75603;SDS011;64187;51.010;13.792;2022-11-11T01:18:38;6.68;;;4.93;;
75603;SDS011;64187;51.010;13.792;2022-11-11T01:23:56;9.35;;;4.60;;
75603;SDS011;64187;51.010;13.792;2022-11-11T01:29:17;7.35;;;4.88;;
75603;SDS011;64187;51.010;13.792;2022-11-11T01:34:35;6.43;;;4.20;;
75603;SDS011;64187;51.010;13.792;2022-11-11T01:39:53;8.48;;;4.80;;
75603;SDS011;64187;51.010;13.792;2022-11-11T01:51:02;8.27;;;5.38;;
75603;SDS011;64187;51.010;13.792;2022-11-11T01:56:22;9.80;;;5.03;;
75603;SDS011;64187;51.010;13.792;2022-11-11T02:01:40;9.45;;;5.43;;
75603;SDS011;64187;51.010;13.792;2022-11-11T02:07:00;10.15;;;5.30;;
75603;SDS011;64187;51.010;13.792;2022-11-11T02:12:21;8.80;;;5.15;;
75603;SDS011;64187;51.010;13.792;2022-11-11T02:17:57;8.90;;;4.38;;
75603;SDS011;64187;51.010;13.792;2022-11-11T02:28:48;7.50;;;4.13;;
75603;SDS011;64187;51.010;13.792;2022-11-11T02:34:08;9.75;;;4.45;;
75603;SDS011;64187;51.010;13.792;2022-11-11T02:39:25;8.38;;;4.80;;
75603;SDS011;64187;51.010;13.792;2022-11-11T02:45:03;7.35;;;4.30;;
75603;SDS011;64187;51.010;13.792;2022-11-11T02:50:21;8.75;;;5.43;;
75603;SDS011;64187;51.010;13.792;2022-11-11T02:55:40;7.90;;;4.72;;
75603;SDS011;64187;51.010;13.792;2022-11-11T03:00:57;7.32;;;4.70;;
75603;SDS011;64187;51.010;13.792;2022-11-11T03:06:15;9.55;;;5.13;;
75603;SDS011;64187;51.010;13.792;2022-11-11T03:11:33;7.25;;;5.22;;
75603;SDS011;64187;51.010;13.792;2022-11-11T03:22:30;7.75;;;5.32;;
75603;SDS011;64187;51.010;13.792;2022-11-11T03:28:09;6.97;;;5.03;;
75603;SDS011;64187;51.010;13.792;2022-11-11T03:33:31;8.95;;;3.55;;
75603;SDS011;64187;51.010;13.792;2022-11-11T03:38:49;10.30;;;4.82;;
75603;SDS011;64187;51.010;13.792;2022-11-11T03:44:06;7.78;;;4.60;;
75603;SDS011;64187;51.010;13.792;2022-11-11T03:49:24;8.10;;;4.30;;
75603;SDS011;64187;51.010;13.792;2022-11-11T03:54:41;8.93;;;5.50;;
75603;SDS011;64187;51.010;13.792;2022-11-11T03:59:58;8.52;;;5.13;;
75603;SDS011;64187;51.010;13.792;2022-11-11T04:05:16;9.75;;;5.45;;
75603;SDS011;64187;51.010;13.792;2022-11-11T04:10:52;9.23;;;5.05;;
75603;SDS011;64187;51.010;13.792;2022-11-11T04:16:09;11.82;;;5.32;;
75603;SDS011;64187;51.010;13.792;2022-11-11T04:21:27;8.13;;;5.55;;
75603;SDS011;64187;51.010;13.792;2022-11-11T04:27:01;7.68;;;4.80;;
75603;SDS011;64187;51.010;13.792;2022-11-11T04:32:20;12.00;;;6.07;;
75603;SDS011;64187;51.010;13.792;2022-11-11T04:37:58;9.57;;;5.30;;
75603;SDS011;64187;51.010;13.792;2022-11-11T04:43:34;8.43;;;5.05;;
75603;SDS011;64187;51.010;13.792;2022-11-11T04:49:10;9.45;;;4.50;;
75603;SDS011;64187;51.010;13.792;2022-11-11T04:54:28;8.15;;;4.18;;
75603;SDS011;64187;51.010;13.792;2022-11-11T05:00:06;9.18;;;5.05;;
75603;SDS011;64187;51.010;13.792;2022-11-11T05:05:25;9.35;;;5.53;;
75603;SDS011;64187;51.010;13.792;2022-11-11T05:10:43;11.70;;;5.80;;
75603;SDS011;64187;51.010;13.792;2022-11-11T05:16:00;8.82;;;5.63;;
75603;SDS011;64187;51.010;13.792;2022-11-11T05:21:36;10.07;;;3.78;;
75603;SDS011;64187;51.010;13.792;2022-11-11T05:26:53;16.90;;;8.18;;
75603;SDS011;64187;51.010;13.792;2022-11-11T05:32:12;9.73;;;6.10;;
75603;SDS011;64187;51.010;13.792;2022-11-11T05:37:33;10.15;;;3.95;;
75603;SDS011;64187;51.010;13.792;2022-11-11T05:42:51;9.95;;;5.13;;
75603;SDS011;64187;51.010;13.792;2022-11-11T05:48:10;8.65;;;5.35;;
75603;SDS011;64187;51.010;13.792;2022-11-11T05:53:27;9.55;;;4.93;;
75603;SDS011;64187;51.010;13.792;2022-11-11T05:58:45;7.93;;;5.18;;
75603;SDS011;64187;51.010;13.792;2022-11-11T06:04:06;8.25;;;5.55;;
75603;SDS011;64187;51.010;13.792;2022-11-11T06:09:29;10.43;;;6.10;;
75603;SDS011;64187;51.010;13.792;2022-11-11T06:14:48;9.90;;;5.75;;
75603;SDS011;64187;51.010;13.792;2022-11-11T06:20:06;9.68;;;6.40;;
75603;SDS011;64187;51.010;13.792;2022-11-11T06:25:25;10.20;;;6.35;;
75603;SDS011;64187;51.010;13.792;2022-11-11T06:31:05;10.90;;;5.55;;
75603;SDS011;64187;51.010;13.792;2022-11-11T06:36:23;11.93;;;6.53;;
75603;SDS011;64187;51.010;13.792;2022-11-11T06:41:44;10.65;;;6.55;;
75603;SDS011;64187;51.010;13.792;2022-11-11T06:47:02;10.82;;;6.28;;
75603;SDS011;64187;51.010;13.792;2022-11-11T06:52:20;10.32;;;7.10;;
75603;SDS011;64187;51.010;13.792;2022-11-11T06:57:37;9.90;;;6.22;;
75603;SDS011;64187;51.010;13.792;2022-11-11T07:02:55;12.13;;;6.30;;
75603;SDS011;64187;51.010;13.792;2022-11-11T07:08:14;11.77;;;5.97;;
75603;SDS011;64187;51.010;13.792;2022-11-11T07:13:33;10.13;;;6.40;;
75603;SDS011;64187;51.010;13.792;2022-11-11T07:18:51;11.02;;;6.22;;
75603;SDS011;64187;51.010;13.792;2022-11-11T07:24:09;10.27;;;6.47;;
75603;SDS011;64187;51.010;13.792;2022-11-11T07:29:26;11.18;;;6.78;;
75603;SDS011;64187;51.010;13.792;2022-11-11T07:34:45;9.10;;;5.43;;
75603;SDS011;64187;51.010;13.792;2022-11-11T07:40:02;12.25;;;6.07;;
75603;SDS011;64187;51.010;13.792;2022-11-11T07:45:20;12.38;;;6.28;;
75603;SDS011;64187;51.010;13.792;2022-11-11T07:50:38;11.75;;;7.00;;
75603;SDS011;64187;51.010;13.792;2022-11-11T07:55:55;14.18;;;6.72;;
75603;SDS011;64187;51.010;13.792;2022-11-11T08:01:13;9.45;;;6.78;;
75603;SDS011;64187;51.010;13.792;2022-11-11T08:06:31;10.80;;;7.25;;
75603;SDS011;64187;51.010;13.792;2022-11-11T08:11:49;11.70;;;6.97;;
75603;SDS011;64187;51.010;13.792;2022-11-11T08:17:24;13.88;;;7.55;;
75603;SDS011;64187;51.010;13.792;2022-11-11T08:22:42;9.45;;;5.90;;
75603;SDS011;64187;51.010;13.792;2022-11-11T08:28:20;10.25;;;7.13;;
75603;SDS011;64187;51.010;13.792;2022-11-11T08:33:38;13.00;;;5.85;;
75603;SDS011;64187;51.010;13.792;2022-11-11T08:38:56;13.20;;;6.45;;
75603;SDS011;64187;51.010;13.792;2022-11-11T08:44:14;10.65;;;6.60;;
75603;SDS011;64187;51.010;13.792;2022-11-11T08:49:31;11.70;;;6.50;;
75603;SDS011;64187;51.010;13.792;2022-11-11T08:54:49;11.68;;;6.32;;
75603;SDS011;64187;51.010;13.792;2022-11-11T09:00:07;10.48;;;7.13;;
75603;SDS011;64187;51.010;13.792;2022-11-11T09:05:26;10.15;;;6.57;;
75603;SDS011;64187;51.010;13.792;2022-11-11T09:10:43;9.82;;;6.70;;
75603;SDS011;64187;51.010;13.792;2022-11-11T09:16:01;9.60;;;6.25;;
75603;SDS011;64187;51.010;13.792;2022-11-11T09:21:18;11.27;;;6.22;;
75603;SDS011;64187;51.010;13.792;2022-11-11T09:26:35;9.25;;;6.13;;
75603;SDS011;64187;51.010;13.792;2022-11-11T09:31:53;10.23;;;6.03;;
75603;SDS011;64187;51.010;13.792;2022-11-11T09:37:10;10.25;;;6.93;;
75603;SDS011;64187;51.010;13.792;2022-11-11T09:53:53;9.88;;;6.72;;
75603;SDS011;64187;51.010;13.792;2022-11-11T09:59:17;11.85;;;6.63;;
75603;SDS011;64187;51.010;13.792;2022-11-11T10:04:45;11.70;;;7.10;;
75603;SDS011;64187;51.010;13.792;2022-11-11T10:21:18;13.75;;;7.25;;
75603;SDS011;64187;51.010;13.792;2022-11-11T10:27:20;11.23;;;7.13;;
75603;SDS011;64187;51.010;13.792;2022-11-11T10:32:39;13.30;;;6.97;;
75603;SDS011;64187;51.010;13.792;2022-11-11T10:44:01;12.02;;;6.70;;
75603;SDS011;64187;51.010;13.792;2022-11-11T10:49:36;13.07;;;6.80;;
75603;SDS011;64187;51.010;13.792;2022-11-11T10:55:21;13.75;;;7.43;;
75603;SDS011;64187;51.010;13.792;2022-11-11T11:00:41;10.38;;;6.30;;
75603;SDS011;64187;51.010;13.792;2022-11-11T11:11:29;12.70;;;8.45;;
75603;SDS011;64187;51.010;13.792;2022-11-11T11:16:58;10.65;;;7.32;;
75603;SDS011;64187;51.010;13.792;2022-11-11T11:22:32;11.38;;;7.30;;
75603;SDS011;64187;51.010;13.792;2022-11-11T11:28:09;12.40;;;7.32;;
75603;SDS011;64187;51.010;13.792;2022-11-11T11:39:12;10.93;;;6.15;;
75603;SDS011;64187;51.010;13.792;2022-11-11T11:44:48;13.05;;;6.90;;
75603;SDS011;64187;51.010;13.792;2022-11-11T11:56:06;10.27;;;6.97;;
75603;SDS011;64187;51.010;13.792;2022-11-11T12:07:51;12.40;;;7.43;;
75603;SDS011;64187;51.010;13.792;2022-11-11T12:46:41;12.65;;;7.32;;
75603;SDS011;64187;51.010;13.792;2022-11-11T13:20:22;11.77;;;6.65;;
75603;SDS011;64187;51.010;13.792;2022-11-11T13:25:45;16.27;;;7.40;;
75603;SDS011;64187;51.010;13.792;2022-11-11T13:36:28;11.10;;;7.20;;
75603;SDS011;64187;51.010;13.792;2022-11-11T13:41:56;12.30;;;7.15;;
75603;SDS011;64187;51.010;13.792;2022-11-11T13:47:18;12.68;;;7.15;;
75603;SDS011;64187;51.010;13.792;2022-11-11T13:52:42;18.17;;;8.40;;
75603;SDS011;64187;51.010;13.792;2022-11-11T13:58:21;14.68;;;8.48;;
75603;SDS011;64187;51.010;13.792;2022-11-11T14:09:02;11.73;;;6.53;;
75603;SDS011;64187;51.010;13.792;2022-11-11T14:31:34;14.90;;;7.40;;
75603;SDS011;64187;51.010;13.792;2022-11-11T14:47:58;15.27;;;8.45;;
75603;SDS011;64187;51.010;13.792;2022-11-11T14:53:16;14.90;;;8.45;;
75603;SDS011;64187;51.010;13.792;2022-11-11T14:58:37;19.27;;;9.50;;
75603;SDS011;64187;51.010;13.792;2022-11-11T15:03:55;17.58;;;9.02;;
75603;SDS011;64187;51.010;13.792;2022-11-11T15:15:00;12.00;;;7.85;;
75603;SDS011;64187;51.010;13.792;2022-11-11T15:20:52;13.48;;;8.25;;
75603;SDS011;64187;51.010;13.792;2022-11-11T15:26:30;16.15;;;7.82;;
75603;SDS011;64187;51.010;13.792;2022-11-11T15:32:14;17.58;;;8.02;;
75603;SDS011;64187;51.010;13.792;2022-11-11T15:37:33;20.45;;;9.38;;
75603;SDS011;64187;51.010;13.792;2022-11-11T15:42:50;18.23;;;8.63;;
75603;SDS011;64187;51.010;13.792;2022-11-11T15:48:15;17.02;;;9.85;;
75603;SDS011;64187;51.010;13.792;2022-11-11T15:53:36;16.90;;;9.75;;
75603;SDS011;64187;51.010;13.792;2022-11-11T15:58:54;18.98;;;10.50;;
75603;SDS011;64187;51.010;13.792;2022-11-11T16:04:18;17.88;;;10.27;;
75603;SDS011;64187;51.010;13.792;2022-11-11T16:09:59;19.23;;;10.52;;
75603;SDS011;64187;51.010;13.792;2022-11-11T16:26:31;19.38;;;10.18;;
75603;SDS011;64187;51.010;13.792;2022-11-11T16:31:50;20.25;;;11.80;;
75603;SDS011;64187;51.010;13.792;2022-11-11T16:37:08;18.88;;;9.38;;
75603;SDS011;64187;51.010;13.792;2022-11-11T16:42:32;16.15;;;9.48;;
75603;SDS011;64187;51.010;13.792;2022-11-11T16:47:49;20.95;;;10.77;;
75603;SDS011;64187;51.010;13.792;2022-11-11T16:53:07;21.13;;;11.10;;
75603;SDS011;64187;51.010;13.792;2022-11-11T16:59:04;20.67;;;11.00;;
75603;SDS011;64187;51.010;13.792;2022-11-11T17:04:44;15.93;;;9.85;;
75603;SDS011;64187;51.010;13.792;2022-11-11T17:15:30;19.88;;;11.35;;
75603;SDS011;64187;51.010;13.792;2022-11-11T17:20:48;18.63;;;10.93;;
75603;SDS011;64187;51.010;13.792;2022-11-11T17:26:07;20.10;;;10.85;;
75603;SDS011;64187;51.010;13.792;2022-11-11T17:31:24;20.75;;;11.70;;
75603;SDS011;64187;51.010;13.792;2022-11-11T17:36:41;21.05;;;11.00;;
75603;SDS011;64187;51.010;13.792;2022-11-11T17:41:59;19.85;;;11.30;;
75603;SDS011;64187;51.010;13.792;2022-11-11T17:47:16;21.08;;;11.30;;
75603;SDS011;64187;51.010;13.792;2022-11-11T17:52:34;21.95;;;12.80;;
75603;SDS011;64187;51.010;13.792;2022-11-11T17:57:51;22.73;;;12.35;;
75603;SDS011;64187;51.010;13.792;2022-11-11T18:03:09;21.60;;;12.98;;
75603;SDS011;64187;51.010;13.792;2022-11-11T18:08:27;23.17;;;12.80;;
75603;SDS011;64187;51.010;13.792;2022-11-11T18:13:46;22.13;;;11.63;;
75603;SDS011;64187;51.010;13.792;2022-11-11T18:19:03;25.98;;;11.70;;
75603;SDS011;64187;51.010;13.792;2022-11-11T18:24:21;20.00;;;11.68;;
75603;SDS011;64187;51.010;13.792;2022-11-11T18:29:38;25.50;;;12.68;;
75603;SDS011;64187;51.010;13.792;2022-11-11T18:34:57;24.00;;;12.25;;
75603;SDS011;64187;51.010;13.792;2022-11-11T18:40:14;22.80;;;12.60;;
75603;SDS011;64187;51.010;13.792;2022-11-11T18:45:34;24.20;;;12.07;;
75603;SDS011;64187;51.010;13.792;2022-11-11T18:50:52;22.15;;;12.82;;
75603;SDS011;64187;51.010;13.792;2022-11-11T18:56:12;23.55;;;13.02;;
75603;SDS011;64187;51.010;13.792;2022-11-11T19:01:31;24.30;;;12.93;;
75603;SDS011;64187;51.010;13.792;2022-11-11T19:06:50;23.67;;;14.00;;
75603;SDS011;64187;51.010;13.792;2022-11-11T19:12:08;25.95;;;13.80;;
75603;SDS011;64187;51.010;13.792;2022-11-11T19:17:25;23.38;;;12.98;;
75603;SDS011;64187;51.010;13.792;2022-11-11T19:22:43;27.95;;;14.95;;
75603;SDS011;64187;51.010;13.792;2022-11-11T19:28:00;27.75;;;14.15;;
75603;SDS011;64187;51.010;13.792;2022-11-11T19:33:18;25.25;;;13.50;;
75603;SDS011;64187;51.010;13.792;2022-11-11T19:38:35;25.85;;;13.98;;
75603;SDS011;64187;51.010;13.792;2022-11-11T19:43:53;23.50;;;13.65;;
75603;SDS011;64187;51.010;13.792;2022-11-11T19:49:14;25.15;;;14.40;;
75603;SDS011;64187;51.010;13.792;2022-11-11T19:54:32;27.83;;;14.20;;
75603;SDS011;64187;51.010;13.792;2022-11-11T19:59:50;22.17;;;14.10;;
75603;SDS011;64187;51.010;13.792;2022-11-11T20:05:07;22.65;;;12.15;;
75603;SDS011;64187;51.010;13.792;2022-11-11T20:10:25;24.08;;;12.75;;
75603;SDS011;64187;51.010;13.792;2022-11-11T20:15:43;19.23;;;11.00;;
75603;SDS011;64187;51.010;13.792;2022-11-11T20:21:01;22.17;;;12.65;;
75603;SDS011;64187;51.010;13.792;2022-11-11T20:26:20;25.08;;;13.00;;
75603;SDS011;64187;51.010;13.792;2022-11-11T20:31:38;21.35;;;12.75;;
75603;SDS011;64187;51.010;13.792;2022-11-11T20:36:56;25.92;;;16.58;;
75603;SDS011;64187;51.010;13.792;2022-11-11T20:42:13;21.27;;;12.80;;
75603;SDS011;64187;51.010;13.792;2022-11-11T20:47:31;26.90;;;15.00;;
75603;SDS011;64187;51.010;13.792;2022-11-11T20:52:50;26.13;;;13.88;;
75603;SDS011;64187;51.010;13.792;2022-11-11T20:58:08;26.65;;;14.80;;
75603;SDS011;64187;51.010;13.792;2022-11-11T21:03:25;25.17;;;12.90;;
75603;SDS011;64187;51.010;13.792;2022-11-11T21:08:44;25.10;;;13.48;;
75603;SDS011;64187;51.010;13.792;2022-11-11T21:14:02;25.52;;;14.40;;
75603;SDS011;64187;51.010;13.792;2022-11-11T21:19:21;27.20;;;15.13;;
75603;SDS011;64187;51.010;13.792;2022-11-11T21:24:38;23.48;;;13.45;;
75603;SDS011;64187;51.010;13.792;2022-11-11T21:29:55;26.15;;;14.18;;
75603;SDS011;64187;51.010;13.792;2022-11-11T21:35:13;26.42;;;13.82;;
75603;SDS011;64187;51.010;13.792;2022-11-11T21:40:31;27.95;;;15.82;;
75603;SDS011;64187;51.010;13.792;2022-11-11T21:45:48;24.83;;;15.07;;
75603;SDS011;64187;51.010;13.792;2022-11-11T21:51:10;25.20;;;13.27;;
75603;SDS011;64187;51.010;13.792;2022-11-11T21:56:28;25.95;;;13.88;;
75603;SDS011;64187;51.010;13.792;2022-11-11T22:01:48;28.75;;;14.90;;
75603;SDS011;64187;51.010;13.792;2022-11-11T22:07:05;27.98;;;15.30;;
75603;SDS011;64187;51.010;13.792;2022-11-11T22:12:23;28.20;;;15.52;;
75603;SDS011;64187;51.010;13.792;2022-11-11T22:17:41;31.98;;;15.48;;
75603;SDS011;64187;51.010;13.792;2022-11-11T22:22:59;26.05;;;14.73;;
75603;SDS011;64187;51.010;13.792;2022-11-11T22:28:16;28.77;;;15.25;;
75603;SDS011;64187;51.010;13.792;2022-11-11T22:33:34;28.48;;;15.10;;
75603;SDS011;64187;51.010;13.792;2022-11-11T22:38:53;26.63;;;14.50;;
75603;SDS011;64187;51.010;13.792;2022-11-11T22:44:10;28.55;;;15.23;;
75603;SDS011;64187;51.010;13.792;2022-11-11T22:49:28;28.55;;;13.85;;
75603;SDS011;64187;51.010;13.792;2022-11-11T22:54:46;31.45;;;15.82;;
75603;SDS011;64187;51.010;13.792;2022-11-11T23:00:04;26.55;;;14.32;;
75603;SDS011;64187;51.010;13.792;2022-11-11T23:05:22;23.83;;;12.98;;
75603;SDS011;64187;51.010;13.792;2022-11-11T23:10:39;29.80;;;14.73;;
75603;SDS011;64187;51.010;13.792;2022-11-11T23:15:57;26.65;;;15.18;;
75603;SDS011;64187;51.010;13.792;2022-11-11T23:21:16;28.98;;;14.82;;
75603;SDS011;64187;51.010;13.792;2022-11-11T23:26:35;24.70;;;13.95;;
75603;SDS011;64187;51.010;13.792;2022-11-11T23:31:53;22.00;;;13.00;;
75603;SDS011;64187;51.010;13.792;2022-11-11T23:37:10;26.98;;;13.68;;
75603;SDS011;64187;51.010;13.792;2022-11-11T23:42:28;24.00;;;13.30;;
75603;SDS011;64187;51.010;13.792;2022-11-11T23:47:45;25.50;;;13.45;;
75603;SDS011;64187;51.010;13.792;2022-11-11T23:53:03;24.83;;;13.05;;
75603;SDS011;64187;51.010;13.792;2022-11-11T23:58:20;24.95;;;14.00;;
